sensor_id;sensor_type;location;lat;lon;timestamp;P1;durP1;ratioP1;P2;durP2;ratioP2
75261;SDS011;63859;51.064;4.580;2023-05-18T00:02:06;12.20;;;3.47;;
75261;SDS011;63859;51.064;4.580;2023-05-18T00:04:32;10.63;;;3.50;;
75261;SDS011;63859;51.064;4.580;2023-05-18T00:06:59;11.97;;;3.70;;
75261;SDS011;63859;51.064;4.580;2023-05-18T00:09:29;10.37;;;3.20;;
75261;SDS011;63859;51.064;4.580;2023-05-18T00:11:56;10.53;;;3.40;;
75261;SDS011;63859;51.064;4.580;2023-05-18T00:14:22;15.00;;;3.93;;
75261;SDS011;63859;51.064;4.580;2023-05-18T00:16:49;10.73;;;3.30;;
75261;SDS011;63859;51.064;4.580;2023-05-18T00:19:17;11.83;;;3.90;;
75261;SDS011;63859;51.064;4.580;2023-05-18T00:21:44;9.07;;;3.30;;
75261;SDS011;63859;51.064;4.580;2023-05-18T00:24:11;11.17;;;3.70;;
75261;SDS011;63859;51.064;4.580;2023-05-18T00:26:37;15.50;;;3.70;;
75261;SDS011;63859;51.064;4.580;2023-05-18T00:29:04;14.70;;;3.60;;
75261;SDS011;63859;51.064;4.580;2023-05-18T00:31:30;16.10;;;3.60;;
75261;SDS011;63859;51.064;4.580;2023-05-18T00:34:00;11.63;;;3.43;;
75261;SDS011;63859;51.064;4.580;2023-05-18T00:36:38;11.20;;;3.50;;
75261;SDS011;63859;51.064;4.580;2023-05-18T00:39:05;14.00;;;3.80;;
75261;SDS011;63859;51.064;4.580;2023-05-18T00:41:32;12.10;;;3.97;;
75261;SDS011;63859;51.064;4.580;2023-05-18T00:43:58;15.50;;;3.70;;
75261;SDS011;63859;51.064;4.580;2023-05-18T00:46:25;15.17;;;4.10;;
75261;SDS011;63859;51.064;4.580;2023-05-18T00:48:52;16.33;;;3.83;;
75261;SDS011;63859;51.064;4.580;2023-05-18T00:51:25;14.10;;;3.93;;
75261;SDS011;63859;51.064;4.580;2023-05-18T00:53:52;11.83;;;4.10;;
75261;SDS011;63859;51.064;4.580;2023-05-18T00:56:19;14.97;;;3.70;;
75261;SDS011;63859;51.064;4.580;2023-05-18T00:58:49;11.90;;;3.73;;
75261;SDS011;63859;51.064;4.580;2023-05-18T01:01:20;13.40;;;4.23;;
75261;SDS011;63859;51.064;4.580;2023-05-18T01:03:52;10.00;;;3.90;;
75261;SDS011;63859;51.064;4.580;2023-05-18T01:06:20;11.47;;;3.70;;
75261;SDS011;63859;51.064;4.580;2023-05-18T01:08:51;17.73;;;4.70;;
75261;SDS011;63859;51.064;4.580;2023-05-18T01:17:12;17.40;;;4.00;;
75261;SDS011;63859;51.064;4.580;2023-05-18T01:27:56;14.67;;;3.80;;
75261;SDS011;63859;51.064;4.580;2023-05-18T01:30:30;14.17;;;3.83;;
75261;SDS011;63859;51.064;4.580;2023-05-18T01:33:05;9.10;;;3.90;;
75261;SDS011;63859;51.064;4.580;2023-05-18T01:35:40;12.83;;;3.97;;
75261;SDS011;63859;51.064;4.580;2023-05-18T01:38:11;15.93;;;4.00;;
75261;SDS011;63859;51.064;4.580;2023-05-18T01:40:45;11.33;;;4.07;;
75261;SDS011;63859;51.064;4.580;2023-05-18T01:43:16;12.43;;;3.80;;
75261;SDS011;63859;51.064;4.580;2023-05-18T01:45:46;15.40;;;4.07;;
75261;SDS011;63859;51.064;4.580;2023-05-18T01:48:17;10.07;;;3.83;;
75261;SDS011;63859;51.064;4.580;2023-05-18T01:50:47;12.77;;;4.13;;
75261;SDS011;63859;51.064;4.580;2023-05-18T01:53:19;16.97;;;4.33;;
75261;SDS011;63859;51.064;4.580;2023-05-18T01:55:51;16.23;;;4.10;;
75261;SDS011;63859;51.064;4.580;2023-05-18T01:58:20;18.17;;;4.77;;
75261;SDS011;63859;51.064;4.580;2023-05-18T02:00:46;13.23;;;4.10;;
75261;SDS011;63859;51.064;4.580;2023-05-18T02:03:13;12.80;;;4.50;;
75261;SDS011;63859;51.064;4.580;2023-05-18T02:05:38;10.47;;;4.13;;
75261;SDS011;63859;51.064;4.580;2023-05-18T02:08:05;19.07;;;4.17;;
75261;SDS011;63859;51.064;4.580;2023-05-18T02:10:30;13.27;;;4.40;;
75261;SDS011;63859;51.064;4.580;2023-05-18T02:12:56;13.07;;;4.07;;
75261;SDS011;63859;51.064;4.580;2023-05-18T02:15:22;13.43;;;3.70;;
75261;SDS011;63859;51.064;4.580;2023-05-18T02:17:48;12.33;;;4.90;;
75261;SDS011;63859;51.064;4.580;2023-05-18T02:20:13;12.77;;;4.27;;
75261;SDS011;63859;51.064;4.580;2023-05-18T02:22:42;11.43;;;4.20;;
75261;SDS011;63859;51.064;4.580;2023-05-18T02:25:12;9.87;;;4.00;;
75261;SDS011;63859;51.064;4.580;2023-05-18T02:27:39;10.97;;;4.40;;
75261;SDS011;63859;51.064;4.580;2023-05-18T02:30:05;15.90;;;4.63;;
75261;SDS011;63859;51.064;4.580;2023-05-18T02:32:33;10.87;;;4.70;;
75261;SDS011;63859;51.064;4.580;2023-05-18T02:35:03;10.00;;;4.20;;
75261;SDS011;63859;51.064;4.580;2023-05-18T02:37:30;14.57;;;4.90;;
75261;SDS011;63859;51.064;4.580;2023-05-18T02:39:58;11.53;;;4.20;;
75261;SDS011;63859;51.064;4.580;2023-05-18T02:42:24;10.80;;;4.20;;
75261;SDS011;63859;51.064;4.580;2023-05-18T02:44:50;10.33;;;4.20;;
75261;SDS011;63859;51.064;4.580;2023-05-18T02:47:16;12.07;;;4.57;;
75261;SDS011;63859;51.064;4.580;2023-05-18T02:49:41;12.93;;;4.23;;
75261;SDS011;63859;51.064;4.580;2023-05-18T02:52:07;10.57;;;4.00;;
75261;SDS011;63859;51.064;4.580;2023-05-18T02:54:33;9.73;;;3.80;;
75261;SDS011;63859;51.064;4.580;2023-05-18T02:56:59;13.60;;;4.00;;
75261;SDS011;63859;51.064;4.580;2023-05-18T02:59:26;13.37;;;4.30;;
75261;SDS011;63859;51.064;4.580;2023-05-18T03:01:52;12.47;;;4.60;;
75261;SDS011;63859;51.064;4.580;2023-05-18T03:04:18;15.97;;;4.23;;
75261;SDS011;63859;51.064;4.580;2023-05-18T03:06:44;12.53;;;4.47;;
75261;SDS011;63859;51.064;4.580;2023-05-18T03:09:11;15.93;;;5.33;;
75261;SDS011;63859;51.064;4.580;2023-05-18T03:11:37;10.87;;;4.43;;
75261;SDS011;63859;51.064;4.580;2023-05-18T03:14:02;10.00;;;4.30;;
75261;SDS011;63859;51.064;4.580;2023-05-18T03:16:28;15.70;;;4.57;;
75261;SDS011;63859;51.064;4.580;2023-05-18T03:18:54;13.30;;;4.70;;
75261;SDS011;63859;51.064;4.580;2023-05-18T03:21:22;15.07;;;4.47;;
75261;SDS011;63859;51.064;4.580;2023-05-18T03:23:48;8.53;;;4.40;;
75261;SDS011;63859;51.064;4.580;2023-05-18T03:26:15;9.53;;;4.70;;
75261;SDS011;63859;51.064;4.580;2023-05-18T03:28:42;10.37;;;4.23;;
75261;SDS011;63859;51.064;4.580;2023-05-18T03:31:07;11.83;;;4.50;;
75261;SDS011;63859;51.064;4.580;2023-05-18T03:33:33;12.87;;;4.17;;
75261;SDS011;63859;51.064;4.580;2023-05-18T03:36:01;11.57;;;4.70;;
75261;SDS011;63859;51.064;4.580;2023-05-18T03:38:28;9.83;;;4.00;;
75261;SDS011;63859;51.064;4.580;2023-05-18T03:40:54;9.40;;;4.50;;
75261;SDS011;63859;51.064;4.580;2023-05-18T03:43:20;8.63;;;3.87;;
75261;SDS011;63859;51.064;4.580;2023-05-18T03:45:49;10.77;;;4.33;;
75261;SDS011;63859;51.064;4.580;2023-05-18T03:48:15;7.10;;;4.30;;
75261;SDS011;63859;51.064;4.580;2023-05-18T03:50:41;18.47;;;5.20;;
75261;SDS011;63859;51.064;4.580;2023-05-18T03:53:07;10.67;;;4.83;;
75261;SDS011;63859;51.064;4.580;2023-05-18T03:55:33;14.90;;;4.50;;
75261;SDS011;63859;51.064;4.580;2023-05-18T03:57:59;11.50;;;4.63;;
75261;SDS011;63859;51.064;4.580;2023-05-18T04:00:25;10.90;;;3.87;;
75261;SDS011;63859;51.064;4.580;2023-05-18T04:02:51;15.90;;;5.00;;
75261;SDS011;63859;51.064;4.580;2023-05-18T04:05:17;15.23;;;4.47;;
75261;SDS011;63859;51.064;4.580;2023-05-18T04:07:43;14.60;;;4.97;;
75261;SDS011;63859;51.064;4.580;2023-05-18T04:10:12;11.83;;;4.30;;
75261;SDS011;63859;51.064;4.580;2023-05-18T04:12:38;10.17;;;4.57;;
75261;SDS011;63859;51.064;4.580;2023-05-18T04:15:04;11.37;;;4.30;;
75261;SDS011;63859;51.064;4.580;2023-05-18T04:17:30;9.23;;;4.17;;
75261;SDS011;63859;51.064;4.580;2023-05-18T04:19:57;11.93;;;4.33;;
75261;SDS011;63859;51.064;4.580;2023-05-18T04:22:24;17.20;;;6.00;;
75261;SDS011;63859;51.064;4.580;2023-05-18T04:24:49;17.90;;;4.73;;
75261;SDS011;63859;51.064;4.580;2023-05-18T04:27:19;13.97;;;4.77;;
75261;SDS011;63859;51.064;4.580;2023-05-18T04:29:44;11.67;;;4.20;;
75261;SDS011;63859;51.064;4.580;2023-05-18T04:32:11;10.40;;;4.00;;
75261;SDS011;63859;51.064;4.580;2023-05-18T04:34:37;10.07;;;4.10;;
75261;SDS011;63859;51.064;4.580;2023-05-18T04:37:03;11.90;;;4.63;;
75261;SDS011;63859;51.064;4.580;2023-05-18T04:39:30;14.67;;;4.50;;
75261;SDS011;63859;51.064;4.580;2023-05-18T04:41:56;9.43;;;4.27;;
75261;SDS011;63859;51.064;4.580;2023-05-18T04:44:27;13.60;;;4.83;;
75261;SDS011;63859;51.064;4.580;2023-05-18T04:46:53;16.83;;;4.63;;
75261;SDS011;63859;51.064;4.580;2023-05-18T04:49:20;11.80;;;4.73;;
75261;SDS011;63859;51.064;4.580;2023-05-18T04:51:49;13.03;;;4.33;;
75261;SDS011;63859;51.064;4.580;2023-05-18T04:54:21;12.90;;;4.73;;
75261;SDS011;63859;51.064;4.580;2023-05-18T04:56:48;9.27;;;4.30;;
75261;SDS011;63859;51.064;4.580;2023-05-18T04:59:14;11.57;;;4.80;;
75261;SDS011;63859;51.064;4.580;2023-05-18T05:01:40;12.43;;;4.97;;
75261;SDS011;63859;51.064;4.580;2023-05-18T05:04:05;11.50;;;4.83;;
75261;SDS011;63859;51.064;4.580;2023-05-18T05:06:31;12.20;;;4.53;;
75261;SDS011;63859;51.064;4.580;2023-05-18T05:08:58;9.93;;;4.60;;
75261;SDS011;63859;51.064;4.580;2023-05-18T05:11:24;12.33;;;5.33;;
75261;SDS011;63859;51.064;4.580;2023-05-18T05:13:51;14.83;;;4.87;;
75261;SDS011;63859;51.064;4.580;2023-05-18T05:16:17;12.03;;;5.03;;
75261;SDS011;63859;51.064;4.580;2023-05-18T05:18:42;12.00;;;4.93;;
75261;SDS011;63859;51.064;4.580;2023-05-18T05:21:08;15.00;;;4.67;;
75261;SDS011;63859;51.064;4.580;2023-05-18T05:23:34;13.40;;;4.80;;
75261;SDS011;63859;51.064;4.580;2023-05-18T05:26:01;10.47;;;4.60;;
75261;SDS011;63859;51.064;4.580;2023-05-18T05:28:27;12.73;;;5.03;;
75261;SDS011;63859;51.064;4.580;2023-05-18T05:30:52;13.80;;;4.60;;
75261;SDS011;63859;51.064;4.580;2023-05-18T05:33:18;11.17;;;4.77;;
75261;SDS011;63859;51.064;4.580;2023-05-18T05:35:44;12.40;;;4.90;;
75261;SDS011;63859;51.064;4.580;2023-05-18T05:38:09;9.53;;;4.70;;
75261;SDS011;63859;51.064;4.580;2023-05-18T05:40:35;15.70;;;5.40;;
75261;SDS011;63859;51.064;4.580;2023-05-18T05:43:01;13.10;;;4.67;;
75261;SDS011;63859;51.064;4.580;2023-05-18T05:45:29;13.93;;;5.10;;
75261;SDS011;63859;51.064;4.580;2023-05-18T05:47:55;12.10;;;5.03;;
75261;SDS011;63859;51.064;4.580;2023-05-18T05:50:21;12.40;;;4.90;;
75261;SDS011;63859;51.064;4.580;2023-05-18T05:52:46;18.40;;;5.50;;
75261;SDS011;63859;51.064;4.580;2023-05-18T05:55:12;22.73;;;6.40;;
75261;SDS011;63859;51.064;4.580;2023-05-18T05:57:38;14.77;;;5.13;;
75261;SDS011;63859;51.064;4.580;2023-05-18T06:00:07;9.73;;;5.07;;
75261;SDS011;63859;51.064;4.580;2023-05-18T06:02:38;10.80;;;4.80;;
75261;SDS011;63859;51.064;4.580;2023-05-18T06:05:07;12.57;;;5.30;;
75261;SDS011;63859;51.064;4.580;2023-05-18T06:07:33;13.90;;;5.23;;
75261;SDS011;63859;51.064;4.580;2023-05-18T06:09:59;13.63;;;5.03;;
75261;SDS011;63859;51.064;4.580;2023-05-18T06:12:26;15.60;;;5.30;;
75261;SDS011;63859;51.064;4.580;2023-05-18T06:14:53;11.20;;;5.40;;
75261;SDS011;63859;51.064;4.580;2023-05-18T06:17:23;14.47;;;5.10;;
75261;SDS011;63859;51.064;4.580;2023-05-18T06:19:52;9.97;;;4.97;;
75261;SDS011;63859;51.064;4.580;2023-05-18T06:22:18;21.70;;;5.70;;
75261;SDS011;63859;51.064;4.580;2023-05-18T06:24:44;9.40;;;5.07;;
75261;SDS011;63859;51.064;4.580;2023-05-18T06:27:10;13.20;;;5.37;;
75261;SDS011;63859;51.064;4.580;2023-05-18T06:29:36;13.57;;;5.50;;
75261;SDS011;63859;51.064;4.580;2023-05-18T06:32:02;12.33;;;5.80;;
75261;SDS011;63859;51.064;4.580;2023-05-18T06:34:28;12.67;;;6.00;;
75261;SDS011;63859;51.064;4.580;2023-05-18T06:36:54;11.57;;;5.10;;
75261;SDS011;63859;51.064;4.580;2023-05-18T06:39:20;14.43;;;6.30;;
75261;SDS011;63859;51.064;4.580;2023-05-18T06:41:45;16.10;;;5.93;;
75261;SDS011;63859;51.064;4.580;2023-05-18T06:44:11;14.57;;;5.77;;
75261;SDS011;63859;51.064;4.580;2023-05-18T06:46:37;18.70;;;6.47;;
75261;SDS011;63859;51.064;4.580;2023-05-18T06:49:03;16.33;;;5.97;;
75261;SDS011;63859;51.064;4.580;2023-05-18T06:51:29;13.80;;;6.27;;
75261;SDS011;63859;51.064;4.580;2023-05-18T06:53:55;13.43;;;6.80;;
75261;SDS011;63859;51.064;4.580;2023-05-18T06:56:21;12.43;;;5.97;;
75261;SDS011;63859;51.064;4.580;2023-05-18T06:58:47;19.17;;;6.00;;
75261;SDS011;63859;51.064;4.580;2023-05-18T07:01:13;18.23;;;6.67;;
75261;SDS011;63859;51.064;4.580;2023-05-18T07:03:39;28.20;;;7.20;;
75261;SDS011;63859;51.064;4.580;2023-05-18T07:06:05;17.50;;;6.73;;
75261;SDS011;63859;51.064;4.580;2023-05-18T07:08:31;17.40;;;6.43;;
75261;SDS011;63859;51.064;4.580;2023-05-18T07:10:57;12.80;;;6.57;;
75261;SDS011;63859;51.064;4.580;2023-05-18T07:13:26;20.47;;;7.60;;
75261;SDS011;63859;51.064;4.580;2023-05-18T07:15:52;17.77;;;6.57;;
75261;SDS011;63859;51.064;4.580;2023-05-18T07:18:17;11.77;;;6.70;;
75261;SDS011;63859;51.064;4.580;2023-05-18T07:20:43;19.17;;;6.60;;
75261;SDS011;63859;51.064;4.580;2023-05-18T07:23:10;12.60;;;6.53;;
75261;SDS011;63859;51.064;4.580;2023-05-18T07:25:36;15.83;;;6.63;;
75261;SDS011;63859;51.064;4.580;2023-05-18T07:28:02;13.47;;;6.07;;
75261;SDS011;63859;51.064;4.580;2023-05-18T07:30:29;13.07;;;5.87;;
75261;SDS011;63859;51.064;4.580;2023-05-18T07:32:55;16.97;;;6.33;;
75261;SDS011;63859;51.064;4.580;2023-05-18T07:35:22;15.33;;;6.00;;
75261;SDS011;63859;51.064;4.580;2023-05-18T07:37:48;15.23;;;6.37;;
75261;SDS011;63859;51.064;4.580;2023-05-18T07:40:16;17.00;;;6.27;;
75261;SDS011;63859;51.064;4.580;2023-05-18T07:42:42;11.10;;;6.43;;
75261;SDS011;63859;51.064;4.580;2023-05-18T07:45:09;12.47;;;6.23;;
75261;SDS011;63859;51.064;4.580;2023-05-18T07:47:35;15.63;;;6.40;;
75261;SDS011;63859;51.064;4.580;2023-05-18T07:50:00;21.10;;;6.77;;
75261;SDS011;63859;51.064;4.580;2023-05-18T07:52:27;17.73;;;6.37;;
75261;SDS011;63859;51.064;4.580;2023-05-18T07:54:53;10.93;;;6.30;;
75261;SDS011;63859;51.064;4.580;2023-05-18T07:57:21;17.27;;;6.20;;
75261;SDS011;63859;51.064;4.580;2023-05-18T07:59:47;10.80;;;5.67;;
75261;SDS011;63859;51.064;4.580;2023-05-18T08:02:12;17.30;;;6.90;;
75261;SDS011;63859;51.064;4.580;2023-05-18T08:04:40;15.40;;;6.33;;
75261;SDS011;63859;51.064;4.580;2023-05-18T08:07:06;13.33;;;6.30;;
75261;SDS011;63859;51.064;4.580;2023-05-18T08:09:33;15.53;;;6.07;;
75261;SDS011;63859;51.064;4.580;2023-05-18T08:12:00;14.57;;;5.83;;
75261;SDS011;63859;51.064;4.580;2023-05-18T08:14:26;11.23;;;5.80;;
75261;SDS011;63859;51.064;4.580;2023-05-18T08:16:52;14.63;;;6.10;;
75261;SDS011;63859;51.064;4.580;2023-05-18T08:19:17;15.67;;;6.67;;
75261;SDS011;63859;51.064;4.580;2023-05-18T08:21:43;15.10;;;5.90;;
75261;SDS011;63859;51.064;4.580;2023-05-18T08:24:10;14.60;;;5.90;;
75261;SDS011;63859;51.064;4.580;2023-05-18T08:26:37;16.57;;;6.33;;
75261;SDS011;63859;51.064;4.580;2023-05-18T08:29:03;13.87;;;6.30;;
75261;SDS011;63859;51.064;4.580;2023-05-18T08:31:38;10.70;;;5.63;;
75261;SDS011;63859;51.064;4.580;2023-05-18T08:34:05;14.30;;;6.17;;
75261;SDS011;63859;51.064;4.580;2023-05-18T08:36:32;16.30;;;6.00;;
75261;SDS011;63859;51.064;4.580;2023-05-18T08:38:59;13.10;;;5.80;;
75261;SDS011;63859;51.064;4.580;2023-05-18T08:41:37;12.57;;;5.20;;
75261;SDS011;63859;51.064;4.580;2023-05-18T08:44:05;20.03;;;5.57;;
75261;SDS011;63859;51.064;4.580;2023-05-18T08:46:40;11.57;;;4.93;;
75261;SDS011;63859;51.064;4.580;2023-05-18T08:49:07;14.38;;;5.30;;
75261;SDS011;63859;51.064;4.580;2023-05-18T08:51:34;19.47;;;5.63;;
75261;SDS011;63859;51.064;4.580;2023-05-18T08:54:01;14.85;;;5.28;;
75261;SDS011;63859;51.064;4.580;2023-05-18T08:56:30;11.60;;;4.65;;
75261;SDS011;63859;51.064;4.580;2023-05-18T08:59:02;9.07;;;4.05;;
75261;SDS011;63859;51.064;4.580;2023-05-18T09:01:32;15.85;;;4.53;;
75261;SDS011;63859;51.064;4.580;2023-05-18T09:03:58;13.43;;;4.50;;
75261;SDS011;63859;51.064;4.580;2023-05-18T09:06:25;13.82;;;4.60;;
75261;SDS011;63859;51.064;4.580;2023-05-18T09:08:52;11.00;;;4.35;;
75261;SDS011;63859;51.064;4.580;2023-05-18T09:11:23;11.77;;;4.75;;
75261;SDS011;63859;51.064;4.580;2023-05-18T09:13:50;11.00;;;4.35;;
75261;SDS011;63859;51.064;4.580;2023-05-18T09:16:16;10.07;;;4.25;;
75261;SDS011;63859;51.064;4.580;2023-05-18T09:18:42;11.77;;;4.15;;
75261;SDS011;63859;51.064;4.580;2023-05-18T09:21:08;13.00;;;4.22;;
75261;SDS011;63859;51.064;4.580;2023-05-18T09:23:36;12.35;;;3.90;;
75261;SDS011;63859;51.064;4.580;2023-05-18T09:26:05;15.77;;;4.47;;
75261;SDS011;63859;51.064;4.580;2023-05-18T09:28:39;11.70;;;4.63;;
75261;SDS011;63859;51.064;4.580;2023-05-18T09:31:06;15.10;;;4.60;;
75261;SDS011;63859;51.064;4.580;2023-05-18T09:33:37;15.30;;;4.57;;
75261;SDS011;63859;51.064;4.580;2023-05-18T09:36:04;13.93;;;4.30;;
75261;SDS011;63859;51.064;4.580;2023-05-18T09:38:30;15.70;;;4.55;;
75261;SDS011;63859;51.064;4.580;2023-05-18T09:41:02;10.82;;;4.57;;
75261;SDS011;63859;51.064;4.580;2023-05-18T09:43:27;12.80;;;4.55;;
75261;SDS011;63859;51.064;4.580;2023-05-18T09:45:53;13.07;;;5.13;;
75261;SDS011;63859;51.064;4.580;2023-05-18T09:48:19;16.85;;;4.70;;
75261;SDS011;63859;51.064;4.580;2023-05-18T09:50:45;12.35;;;4.38;;
75261;SDS011;63859;51.064;4.580;2023-05-18T09:53:11;15.00;;;4.63;;
75261;SDS011;63859;51.064;4.580;2023-05-18T09:55:48;12.25;;;4.57;;
75261;SDS011;63859;51.064;4.580;2023-05-18T09:58:14;11.30;;;3.85;;
75261;SDS011;63859;51.064;4.580;2023-05-18T10:00:41;14.35;;;4.07;;
75261;SDS011;63859;51.064;4.580;2023-05-18T10:03:15;14.88;;;4.28;;
75261;SDS011;63859;51.064;4.580;2023-05-18T10:05:42;12.02;;;3.40;;
75261;SDS011;63859;51.064;4.580;2023-05-18T10:08:07;14.70;;;4.35;;
75261;SDS011;63859;51.064;4.580;2023-05-18T10:10:37;12.07;;;4.00;;
75261;SDS011;63859;51.064;4.580;2023-05-18T10:13:03;13.57;;;4.72;;
75261;SDS011;63859;51.064;4.580;2023-05-18T10:15:29;13.07;;;4.32;;
75261;SDS011;63859;51.064;4.580;2023-05-18T10:17:57;16.80;;;5.28;;
75261;SDS011;63859;51.064;4.580;2023-05-18T10:20:25;14.98;;;4.30;;
75261;SDS011;63859;51.064;4.580;2023-05-18T10:22:52;17.25;;;4.47;;
75261;SDS011;63859;51.064;4.580;2023-05-18T10:25:20;11.85;;;4.28;;
75261;SDS011;63859;51.064;4.580;2023-05-18T10:27:48;10.55;;;4.32;;
75261;SDS011;63859;51.064;4.580;2023-05-18T10:30:15;10.25;;;4.20;;
75261;SDS011;63859;51.064;4.580;2023-05-18T10:32:41;12.30;;;4.05;;
75261;SDS011;63859;51.064;4.580;2023-05-18T10:35:08;15.00;;;4.78;;
75261;SDS011;63859;51.064;4.580;2023-05-18T10:37:37;13.70;;;4.72;;
75261;SDS011;63859;51.064;4.580;2023-05-18T10:40:05;13.82;;;4.50;;
75261;SDS011;63859;51.064;4.580;2023-05-18T10:42:32;11.35;;;4.53;;
75261;SDS011;63859;51.064;4.580;2023-05-18T10:45:00;11.18;;;4.45;;
75261;SDS011;63859;51.064;4.580;2023-05-18T10:47:26;9.90;;;4.38;;
75261;SDS011;63859;51.064;4.580;2023-05-18T10:49:53;12.07;;;4.60;;
75261;SDS011;63859;51.064;4.580;2023-05-18T10:52:20;11.32;;;4.30;;
75261;SDS011;63859;51.064;4.580;2023-05-18T10:54:47;8.27;;;4.13;;
75261;SDS011;63859;51.064;4.580;2023-05-18T10:57:13;15.15;;;4.35;;
75261;SDS011;63859;51.064;4.580;2023-05-18T10:59:42;11.25;;;4.10;;
75261;SDS011;63859;51.064;4.580;2023-05-18T11:02:12;13.65;;;3.53;;
75261;SDS011;63859;51.064;4.580;2023-05-18T11:04:40;8.80;;;4.05;;
75261;SDS011;63859;51.064;4.580;2023-05-18T11:07:09;11.88;;;4.03;;
75261;SDS011;63859;51.064;4.580;2023-05-18T11:09:36;11.23;;;4.07;;
75261;SDS011;63859;51.064;4.580;2023-05-18T11:12:10;10.48;;;3.42;;
75261;SDS011;63859;51.064;4.580;2023-05-18T11:14:47;9.82;;;4.63;;
75261;SDS011;63859;51.064;4.580;2023-05-18T11:17:20;12.45;;;4.32;;
75261;SDS011;63859;51.064;4.580;2023-05-18T11:27:51;9.90;;;4.40;;
75261;SDS011;63859;51.064;4.580;2023-05-18T11:30:26;10.15;;;4.20;;
75261;SDS011;63859;51.064;4.580;2023-05-18T11:32:52;8.82;;;4.55;;
75261;SDS011;63859;51.064;4.580;2023-05-18T11:41:38;8.93;;;4.13;;
75261;SDS011;63859;51.064;4.580;2023-05-18T11:49:21;11.95;;;4.70;;
75261;SDS011;63859;51.064;4.580;2023-05-18T11:51:53;15.50;;;4.68;;
75261;SDS011;63859;51.064;4.580;2023-05-18T11:54:21;12.77;;;4.35;;
75261;SDS011;63859;51.064;4.580;2023-05-18T11:56:53;14.85;;;5.00;;
75261;SDS011;63859;51.064;4.580;2023-05-18T11:59:36;10.80;;;4.57;;
75261;SDS011;63859;51.064;4.580;2023-05-18T12:02:04;12.90;;;4.60;;
75261;SDS011;63859;51.064;4.580;2023-05-18T12:04:30;8.95;;;4.13;;
75261;SDS011;63859;51.064;4.580;2023-05-18T12:06:57;7.97;;;4.13;;
75261;SDS011;63859;51.064;4.580;2023-05-18T12:09:29;13.52;;;4.65;;
75261;SDS011;63859;51.064;4.580;2023-05-18T12:11:55;10.60;;;4.32;;
75261;SDS011;63859;51.064;4.580;2023-05-18T12:14:21;14.90;;;4.60;;
75261;SDS011;63859;51.064;4.580;2023-05-18T12:16:48;15.23;;;4.57;;
75261;SDS011;63859;51.064;4.580;2023-05-18T12:19:14;12.05;;;4.43;;
75261;SDS011;63859;51.064;4.580;2023-05-18T12:21:42;10.05;;;4.22;;
75261;SDS011;63859;51.064;4.580;2023-05-18T12:24:07;17.65;;;5.00;;
75261;SDS011;63859;51.064;4.580;2023-05-18T12:26:33;11.70;;;3.90;;
75261;SDS011;63859;51.064;4.580;2023-05-18T12:28:59;11.23;;;4.47;;
75261;SDS011;63859;51.064;4.580;2023-05-18T12:31:26;9.48;;;4.63;;
75261;SDS011;63859;51.064;4.580;2023-05-18T12:33:55;10.00;;;3.90;;
75261;SDS011;63859;51.064;4.580;2023-05-18T12:36:21;9.63;;;4.28;;
75261;SDS011;63859;51.064;4.580;2023-05-18T12:38:53;11.73;;;4.40;;
75261;SDS011;63859;51.064;4.580;2023-05-18T12:41:22;11.52;;;4.32;;
75261;SDS011;63859;51.064;4.580;2023-05-18T12:43:51;9.55;;;3.95;;
75261;SDS011;63859;51.064;4.580;2023-05-18T12:46:22;13.23;;;4.65;;
75261;SDS011;63859;51.064;4.580;2023-05-18T12:48:55;8.30;;;3.60;;
75261;SDS011;63859;51.064;4.580;2023-05-18T12:51:30;15.70;;;4.13;;
75261;SDS011;63859;51.064;4.580;2023-05-18T12:53:56;10.88;;;4.30;;
75261;SDS011;63859;51.064;4.580;2023-05-18T12:56:23;9.85;;;4.20;;
75261;SDS011;63859;51.064;4.580;2023-05-18T12:58:56;14.77;;;4.57;;
75261;SDS011;63859;51.064;4.580;2023-05-18T13:01:28;9.93;;;4.40;;
75261;SDS011;63859;51.064;4.580;2023-05-18T13:03:57;11.93;;;4.40;;
75261;SDS011;63859;51.064;4.580;2023-05-18T13:06:23;10.70;;;4.03;;
75261;SDS011;63859;51.064;4.580;2023-05-18T13:08:53;13.68;;;4.43;;
75261;SDS011;63859;51.064;4.580;2023-05-18T13:11:22;18.33;;;4.70;;
75261;SDS011;63859;51.064;4.580;2023-05-18T13:14:00;9.40;;;4.43;;
75261;SDS011;63859;51.064;4.580;2023-05-18T13:16:28;11.70;;;4.00;;
75261;SDS011;63859;51.064;4.580;2023-05-18T13:18:55;10.98;;;4.53;;
75261;SDS011;63859;51.064;4.580;2023-05-18T13:21:22;13.75;;;4.07;;
75261;SDS011;63859;51.064;4.580;2023-05-18T13:23:48;10.98;;;4.30;;
75261;SDS011;63859;51.064;4.580;2023-05-18T13:26:14;15.07;;;4.88;;
75261;SDS011;63859;51.064;4.580;2023-05-18T13:28:40;10.60;;;4.22;;
75261;SDS011;63859;51.064;4.580;2023-05-18T13:31:05;9.05;;;4.60;;
75261;SDS011;63859;51.064;4.580;2023-05-18T13:33:32;12.27;;;4.20;;
75261;SDS011;63859;51.064;4.580;2023-05-18T13:35:58;10.85;;;4.13;;
75261;SDS011;63859;51.064;4.580;2023-05-18T13:38:23;13.55;;;4.45;;
75261;SDS011;63859;51.064;4.580;2023-05-18T13:40:49;10.68;;;4.28;;
75261;SDS011;63859;51.064;4.580;2023-05-18T13:43:15;9.40;;;3.97;;
75261;SDS011;63859;51.064;4.580;2023-05-18T13:45:40;10.50;;;4.30;;
75261;SDS011;63859;51.064;4.580;2023-05-18T13:48:07;9.27;;;3.65;;
75261;SDS011;63859;51.064;4.580;2023-05-18T13:50:33;6.32;;;3.35;;
75261;SDS011;63859;51.064;4.580;2023-05-18T13:52:59;10.98;;;4.13;;
75261;SDS011;63859;51.064;4.580;2023-05-18T13:55:25;11.63;;;3.70;;
75261;SDS011;63859;51.064;4.580;2023-05-18T13:57:51;7.25;;;3.65;;
75261;SDS011;63859;51.064;4.580;2023-05-18T14:00:17;9.25;;;4.50;;
75261;SDS011;63859;51.064;4.580;2023-05-18T14:02:44;12.30;;;4.20;;
75261;SDS011;63859;51.064;4.580;2023-05-18T14:05:11;12.70;;;3.90;;
75261;SDS011;63859;51.064;4.580;2023-05-18T14:07:38;11.52;;;3.97;;
75261;SDS011;63859;51.064;4.580;2023-05-18T14:10:06;10.80;;;3.75;;
75261;SDS011;63859;51.064;4.580;2023-05-18T14:12:33;11.50;;;4.15;;
75261;SDS011;63859;51.064;4.580;2023-05-18T14:14:59;10.35;;;3.75;;
75261;SDS011;63859;51.064;4.580;2023-05-18T14:17:25;12.60;;;4.13;;
75261;SDS011;63859;51.064;4.580;2023-05-18T14:19:53;13.75;;;4.13;;
75261;SDS011;63859;51.064;4.580;2023-05-18T14:22:19;9.80;;;3.72;;
75261;SDS011;63859;51.064;4.580;2023-05-18T14:24:46;10.40;;;4.15;;
75261;SDS011;63859;51.064;4.580;2023-05-18T14:27:14;13.80;;;4.28;;
75261;SDS011;63859;51.064;4.580;2023-05-18T14:29:40;12.23;;;4.07;;
75261;SDS011;63859;51.064;4.580;2023-05-18T14:32:06;12.88;;;4.10;;
75261;SDS011;63859;51.064;4.580;2023-05-18T14:34:32;11.10;;;4.18;;
75261;SDS011;63859;51.064;4.580;2023-05-18T14:36:58;9.82;;;3.67;;
75261;SDS011;63859;51.064;4.580;2023-05-18T14:39:24;12.30;;;4.15;;
75261;SDS011;63859;51.064;4.580;2023-05-18T14:41:50;12.13;;;3.90;;
75261;SDS011;63859;51.064;4.580;2023-05-18T14:44:15;12.40;;;3.95;;
75261;SDS011;63859;51.064;4.580;2023-05-18T14:46:41;7.65;;;3.83;;
75261;SDS011;63859;51.064;4.580;2023-05-18T14:49:07;10.05;;;3.92;;
75261;SDS011;63859;51.064;4.580;2023-05-18T14:51:33;11.40;;;4.47;;
75261;SDS011;63859;51.064;4.580;2023-05-18T14:53:59;7.72;;;3.03;;
75261;SDS011;63859;51.064;4.580;2023-05-18T14:56:25;10.27;;;4.03;;
75261;SDS011;63859;51.064;4.580;2023-05-18T14:58:51;13.70;;;4.05;;
75261;SDS011;63859;51.064;4.580;2023-05-18T15:01:17;10.30;;;4.15;;
75261;SDS011;63859;51.064;4.580;2023-05-18T15:03:43;9.43;;;3.80;;
75261;SDS011;63859;51.064;4.580;2023-05-18T15:06:09;11.57;;;4.00;;
75261;SDS011;63859;51.064;4.580;2023-05-18T15:08:35;12.20;;;4.00;;
75261;SDS011;63859;51.064;4.580;2023-05-18T15:11:01;13.82;;;3.80;;